createdAt,value
2018-08-23T00:00:43.167Z,20.04
2018-08-23T00:03:46.859Z,19.97
2018-08-23T00:06:58.562Z,19.91
2018-08-23T00:10:03.340Z,19.87
2018-08-23T00:13:07.362Z,19.86
2018-08-23T00:16:11.054Z,19.90
2018-08-23T00:19:15.303Z,19.87
2018-08-23T00:22:24.242Z,19.83
2018-08-23T00:25:35.039Z,19.76
2018-08-23T00:28:38.841Z,19.70
2018-08-23T00:31:42.470Z,19.67
2018-08-23T00:34:46.099Z,19.65
2018-08-23T00:37:49.943Z,19.57
2018-08-23T00:40:53.528Z,19.48
2018-08-23T00:43:57.223Z,19.47
2018-08-23T00:47:00.772Z,19.35
2018-08-23T00:50:04.524Z,19.29
2018-08-23T00:53:08.109Z,19.24
2018-08-23T00:56:18.442Z,19.20
2018-08-23T00:59:22.014Z,19.09
2018-08-23T01:02:25.684Z,19.01
2018-08-23T01:05:35.963Z,18.95
2018-08-23T01:08:39.579Z,18.99
2018-08-23T01:11:45.697Z,18.93
2018-08-23T01:14:51.441Z,18.87
2018-08-23T01:18:14.314Z,18.85
2018-08-23T01:21:18.000Z,18.84
2018-08-23T01:24:21.844Z,18.84
2018-08-23T01:27:30.658Z,18.79
2018-08-23T01:30:34.558Z,18.77
2018-08-23T01:33:38.154Z,18.79
2018-08-23T01:36:42.363Z,18.76
2018-08-23T01:39:46.035Z,18.74
2018-08-23T01:42:49.643Z,18.72
2018-08-23T01:45:53.300Z,18.66
2018-08-23T01:48:56.945Z,18.58
2018-08-23T01:52:00.488Z,18.66
2018-08-23T01:55:04.109Z,18.59
2018-08-23T01:58:07.732Z,18.63
2018-08-23T02:01:13.962Z,18.58
2018-08-23T02:04:17.508Z,18.50
2018-08-23T02:07:21.095Z,18.44
2018-08-23T02:10:24.769Z,18.36
2018-08-23T02:13:29.098Z,18.33
2018-08-23T02:16:43.829Z,18.26
2018-08-23T02:19:49.238Z,18.32
2018-08-23T02:22:53.358Z,18.28
2018-08-23T02:25:56.939Z,18.29
2018-08-23T02:29:00.603Z,18.26
2018-08-23T02:32:05.509Z,18.17
2018-08-23T02:35:09.208Z,18.13
2018-08-23T02:38:12.882Z,18.11
2018-08-23T02:41:16.982Z,18.06
2018-08-23T02:44:20.640Z,18.05
2018-08-23T02:47:24.635Z,18.05
2018-08-23T02:50:28.216Z,18.03
2018-08-23T02:53:36.788Z,17.98
2018-08-23T02:56:41.095Z,17.93
2018-08-23T02:59:44.664Z,17.91
2018-08-23T03:02:48.490Z,17.85
2018-08-23T03:05:52.185Z,17.84
2018-08-23T03:08:55.849Z,17.82
2018-08-23T03:12:01.504Z,17.79
2018-08-23T03:15:06.456Z,17.79
2018-08-23T03:18:10.019Z,17.77
2018-08-23T03:21:13.648Z,17.76
2018-08-23T03:24:20.319Z,17.72
2018-08-23T03:27:23.891Z,17.73
2018-08-23T03:30:27.497Z,17.72
2018-08-23T03:33:32.759Z,17.73
2018-08-23T03:36:36.266Z,17.66
2018-08-23T03:39:39.850Z,17.59
2018-08-23T03:42:43.391Z,17.54
2018-08-23T03:45:46.951Z,17.52
2018-08-23T03:48:55.148Z,17.50
2018-08-23T03:51:59.180Z,17.44
2018-08-23T03:55:02.824Z,17.47
2018-08-23T03:58:06.440Z,17.44
2018-08-23T04:01:13.611Z,17.40
2018-08-23T04:04:17.164Z,17.39
2018-08-23T04:07:20.852Z,17.44
2018-08-23T04:10:25.049Z,17.41
2018-08-23T04:13:28.744Z,17.38
2018-08-23T04:16:32.709Z,17.44
2018-08-23T04:19:51.595Z,17.51
2018-08-23T04:22:56.253Z,17.49
2018-08-23T04:25:59.927Z,17.45
2018-08-23T04:29:03.476Z,17.43
2018-08-23T04:32:07.150Z,17.48
2018-08-23T04:35:13.431Z,17.53
2018-08-23T04:38:17.094Z,17.56
2018-08-23T04:41:20.650Z,17.59
2018-08-23T04:44:24.251Z,17.55
2018-08-23T04:47:27.814Z,17.59
2018-08-23T04:50:31.506Z,17.65
2018-08-23T04:53:35.272Z,17.75
2018-08-23T04:56:38.902Z,17.80
2018-08-23T04:59:42.515Z,17.81
2018-08-23T05:02:46.056Z,17.89
2018-08-23T05:05:49.591Z,17.94
2018-08-23T05:08:53.351Z,18.03
2018-08-23T05:11:57.010Z,18.12
2018-08-23T05:15:00.587Z,18.19
2018-08-23T05:18:04.158Z,18.23
2018-08-23T05:21:07.725Z,18.39
2018-08-23T05:24:12.686Z,18.49
2018-08-23T05:27:16.223Z,18.61
2018-08-23T05:30:19.844Z,18.72
2018-08-23T05:33:24.007Z,18.85
2018-08-23T05:36:27.582Z,19.16
2018-08-23T05:39:44.107Z,19.54
2018-08-23T05:42:54.203Z,19.88
2018-08-23T05:45:58.054Z,20.51
2018-08-23T05:49:01.597Z,21.18
2018-08-23T05:52:05.286Z,21.44
2018-08-23T05:55:08.892Z,21.80
2018-08-23T05:58:18.571Z,22.14
2018-08-23T06:01:22.194Z,22.41
2018-08-23T06:04:36.691Z,22.78
2018-08-23T06:07:40.321Z,23.21
2018-08-23T06:10:46.596Z,23.14
2018-08-23T06:13:50.190Z,23.43
2018-08-23T06:16:57.876Z,23.99
2018-08-23T06:20:01.616Z,23.92
2018-08-23T06:23:05.622Z,23.76
2018-08-23T06:26:09.287Z,23.76
2018-08-23T06:29:27.940Z,24.16
2018-08-23T06:32:31.608Z,24.54
2018-08-23T06:35:38.114Z,25.28
2018-08-23T06:38:46.025Z,25.75
2018-08-23T06:41:49.797Z,25.66
2018-08-23T06:44:54.604Z,25.28
2018-08-23T06:48:02.928Z,25.17
2018-08-23T06:51:10.749Z,25.18
2018-08-23T06:54:14.362Z,24.48
2018-08-23T06:57:17.993Z,23.89
2018-08-23T07:00:26.132Z,24.29
2018-08-23T07:03:30.697Z,24.01
2018-08-23T07:06:35.308Z,23.92
2018-08-23T07:09:41.766Z,24.26
2018-08-23T07:12:45.506Z,24.04
2018-08-23T07:15:53.314Z,24.35
2018-08-23T07:18:56.975Z,24.18
2018-08-23T07:22:02.458Z,24.43
2018-08-23T07:25:08.614Z,24.09
2018-08-23T07:28:12.352Z,24.74
2018-08-23T07:31:16.086Z,24.61
2018-08-23T07:34:19.782Z,24.79
2018-08-23T07:37:23.466Z,24.93
2018-08-23T07:40:27.132Z,24.85
2018-08-23T07:43:30.898Z,25.35
2018-08-23T07:46:34.497Z,25.39
2018-08-23T07:49:38.165Z,25.48
2018-08-23T07:52:46.064Z,25.73
2018-08-23T07:55:49.767Z,25.75
2018-08-23T07:58:54.673Z,24.68
2018-08-23T08:01:58.359Z,24.36
2018-08-23T08:05:02.305Z,23.95
2018-08-23T08:08:06.638Z,24.54
2018-08-23T08:11:10.257Z,24.65
2018-08-23T08:14:19.077Z,25.17
2018-08-23T08:17:31.194Z,25.63
2018-08-23T08:20:35.286Z,25.50
2018-08-23T08:23:39.048Z,25.28
2018-08-23T08:26:42.765Z,25.04
2018-08-23T08:29:46.388Z,24.47
2018-08-23T08:32:50.081Z,24.68
2018-08-23T08:36:00.344Z,24.66
2018-08-23T08:39:04.966Z,25.20
2018-08-23T08:42:08.661Z,25.53
2018-08-23T08:45:13.484Z,26.20
2018-08-23T08:48:22.419Z,25.20
2018-08-23T08:51:29.643Z,25.22
2018-08-23T08:54:33.239Z,25.00
2018-08-23T08:57:40.402Z,24.35
2018-08-23T09:00:51.557Z,24.68
2018-08-23T09:03:55.163Z,25.17
2018-08-23T09:06:58.855Z,25.35
2018-08-23T09:10:02.636Z,25.56
2018-08-23T09:13:06.576Z,25.77
2018-08-23T09:16:11.323Z,25.48
2018-08-23T09:19:15.044Z,25.23
2018-08-23T09:22:19.509Z,25.10
2018-08-23T09:25:27.450Z,25.82
2018-08-23T09:28:31.139Z,25.88
2018-08-23T09:31:34.887Z,25.66
2018-08-23T09:34:39.704Z,25.52
2018-08-23T09:37:43.434Z,26.09
2018-08-23T09:40:47.264Z,25.80
2018-08-23T09:43:51.036Z,25.82
2018-08-23T09:46:59.014Z,25.82
2018-08-23T09:50:02.869Z,25.42
2018-08-23T09:53:14.241Z,25.71
2018-08-23T09:56:23.026Z,25.92
2018-08-23T09:59:27.946Z,26.20
2018-08-23T10:02:37.075Z,26.49
2018-08-23T10:05:48.038Z,25.82
2018-08-23T10:09:03.206Z,25.71
2018-08-23T10:12:12.081Z,25.54
2018-08-23T10:15:21.306Z,25.65
2018-08-23T10:18:30.150Z,25.64
2018-08-23T10:23:42.352Z,25.99
2018-08-23T10:26:46.398Z,25.63
2018-08-23T10:29:50.135Z,25.65
2018-08-23T10:32:54.025Z,25.96
2018-08-23T10:35:57.859Z,25.84
2018-08-23T10:39:01.532Z,25.73
2018-08-23T10:42:09.282Z,25.96
2018-08-23T10:45:13.421Z,25.84
2018-08-23T10:48:18.291Z,25.76
2018-08-23T10:51:22.018Z,25.46
2018-08-23T10:54:25.641Z,25.62
2018-08-23T10:57:29.204Z,25.78
2018-08-23T11:00:32.862Z,26.37
2018-08-23T11:03:36.623Z,26.72
2018-08-23T11:06:45.356Z,27.17
2018-08-23T11:09:54.208Z,27.29
2018-08-23T11:13:02.764Z,26.95
2018-08-23T11:16:11.618Z,26.31
2018-08-23T11:19:20.489Z,26.12
2018-08-23T11:22:28.365Z,26.02
2018-08-23T11:25:31.991Z,25.66
2018-08-23T11:28:35.610Z,25.99
2018-08-23T11:31:39.275Z,26.32
2018-08-23T11:34:42.930Z,26.75
2018-08-23T11:37:46.556Z,26.84
2018-08-23T11:40:50.331Z,26.45
2018-08-23T11:43:54.015Z,26.24
2018-08-23T11:46:57.721Z,26.13
2018-08-23T11:50:01.713Z,26.58
2018-08-23T11:53:05.764Z,26.81
2018-08-23T11:56:09.769Z,26.82
2018-08-23T11:59:13.648Z,26.77
2018-08-23T12:02:17.146Z,26.79
2018-08-23T12:05:20.929Z,26.89
2018-08-23T12:08:24.696Z,27.02
2018-08-23T12:11:28.375Z,26.95
2018-08-23T12:14:32.118Z,27.07
2018-08-23T12:17:35.840Z,26.92
2018-08-23T12:20:39.596Z,27.26
2018-08-23T12:23:43.376Z,26.73
2018-08-23T12:26:47.077Z,27.05
2018-08-23T12:29:51.126Z,27.41
2018-08-23T12:32:55.000Z,27.40
2018-08-23T12:35:58.704Z,27.44
2018-08-23T12:39:07.672Z,27.24
2018-08-23T12:42:16.657Z,27.35
2018-08-23T12:45:20.517Z,27.37
2018-08-23T12:48:24.301Z,27.23
2018-08-23T12:51:27.983Z,27.31
2018-08-23T12:54:31.611Z,27.73
2018-08-23T12:57:35.300Z,27.45
2018-08-23T13:00:39.993Z,27.46
2018-08-23T13:03:43.626Z,27.44
2018-08-23T13:06:47.269Z,27.42
2018-08-23T13:09:50.956Z,27.47
2018-08-23T13:12:54.591Z,27.70
2018-08-23T13:15:58.396Z,27.75
2018-08-23T13:19:02.099Z,28.02
2018-08-23T13:22:06.033Z,28.15
2018-08-23T13:25:11.516Z,28.31
2018-08-23T13:28:15.349Z,28.44
2018-08-23T13:31:19.036Z,28.09
2018-08-23T13:34:22.752Z,27.84
2018-08-23T13:37:26.790Z,28.01
2018-08-23T13:40:30.477Z,27.84
2018-08-23T13:43:34.280Z,27.86
2018-08-23T13:46:38.079Z,28.10
2018-08-23T13:49:41.759Z,28.29
2018-08-23T13:52:45.558Z,28.00
2018-08-23T13:55:49.248Z,27.67
2018-08-23T13:58:53.602Z,27.96
2018-08-23T14:01:57.266Z,28.17
2018-08-23T14:05:00.898Z,27.91
2018-08-23T14:08:04.556Z,27.42
2018-08-23T14:11:08.357Z,28.00
2018-08-23T14:14:12.002Z,28.14
2018-08-23T14:17:15.718Z,28.02
2018-08-23T14:20:19.573Z,28.27
2018-08-23T14:23:23.289Z,27.86
2018-08-23T14:26:26.911Z,27.83
2018-08-23T14:29:30.643Z,27.93
2018-08-23T14:32:34.496Z,27.94
2018-08-23T14:35:38.257Z,27.97
2018-08-23T14:38:41.942Z,27.87
2018-08-23T14:41:45.873Z,27.91
2018-08-23T14:44:49.478Z,27.93
2018-08-23T14:47:58.346Z,28.06
2018-08-23T14:51:02.246Z,27.82
2018-08-23T14:54:11.178Z,27.59
2018-08-23T14:57:20.114Z,27.43
2018-08-23T15:00:23.745Z,27.51
2018-08-23T15:03:27.597Z,27.61
2018-08-23T15:06:31.452Z,27.81
2018-08-23T15:09:35.157Z,27.65
2018-08-23T15:12:38.889Z,27.49
2018-08-23T15:15:49.613Z,27.49
2018-08-23T15:18:53.267Z,27.72
2018-08-23T15:21:56.963Z,27.99
2018-08-23T15:25:00.629Z,27.96
2018-08-23T15:28:04.338Z,28.06
2018-08-23T15:31:08.041Z,27.89
2018-08-23T15:34:12.004Z,27.84
2018-08-23T15:37:15.735Z,27.69
2018-08-23T15:40:19.433Z,27.65
2018-08-23T15:43:24.119Z,27.49
2018-08-23T15:46:31.947Z,27.25
2018-08-23T15:49:35.672Z,27.24
2018-08-23T15:52:39.423Z,27.44
2018-08-23T15:55:43.229Z,27.74
2018-08-23T15:58:46.898Z,27.49
2018-08-23T16:01:50.551Z,27.39
2018-08-23T16:04:54.325Z,27.22
2018-08-23T16:07:58.042Z,27.10
2018-08-23T16:11:01.720Z,27.12
2018-08-23T16:14:05.513Z,27.21
2018-08-23T16:17:14.375Z,27.31
2018-08-23T16:20:23.251Z,27.25
2018-08-23T16:23:27.018Z,27.09
2018-08-23T16:26:35.943Z,26.81
2018-08-23T16:29:39.683Z,26.66
2018-08-23T16:32:43.393Z,26.65
2018-08-23T16:35:47.014Z,26.67
2018-08-23T16:38:50.691Z,26.75
2018-08-23T16:41:54.462Z,26.84
2018-08-23T16:44:58.141Z,26.84
2018-08-23T16:48:01.918Z,26.70
2018-08-23T16:51:05.612Z,26.76
2018-08-23T16:54:09.428Z,26.63
2018-08-23T16:57:13.038Z,26.55
2018-08-23T17:00:16.798Z,26.56
2018-08-23T17:03:20.510Z,26.39
2018-08-23T17:06:25.704Z,26.36
2018-08-23T17:09:29.334Z,26.22
2018-08-23T17:12:33.057Z,26.09
2018-08-23T17:15:41.928Z,25.98
2018-08-23T17:18:45.756Z,25.89
2018-08-23T17:21:49.366Z,25.77
2018-08-23T17:24:53.240Z,25.69
2018-08-23T17:27:56.884Z,25.63
2018-08-23T17:31:00.910Z,25.58
2018-08-23T17:34:04.600Z,25.58
2018-08-23T17:37:08.419Z,25.42
2018-08-23T17:40:12.323Z,25.47
2018-08-23T17:43:16.053Z,25.28
2018-08-23T17:46:19.748Z,25.30
2018-08-23T17:49:23.437Z,25.16
2018-08-23T17:52:27.406Z,25.07
2018-08-23T17:55:31.218Z,24.89
2018-08-23T17:58:34.965Z,24.82
2018-08-23T18:01:38.890Z,24.71
2018-08-23T18:04:42.753Z,24.74
2018-08-23T18:07:46.452Z,24.57
2018-08-23T18:10:50.224Z,24.48
2018-08-23T18:13:53.955Z,24.41
2018-08-23T18:17:00.965Z,24.20
2018-08-23T18:20:04.941Z,24.04
2018-08-23T18:23:08.693Z,23.80
2018-08-23T18:26:12.569Z,23.66
2018-08-23T18:29:16.381Z,23.66
2018-08-23T18:32:20.099Z,23.32
2018-08-23T18:35:23.914Z,23.32
2018-08-23T18:38:27.750Z,23.27
2018-08-23T18:41:31.438Z,23.23
2018-08-23T18:44:35.160Z,23.12
2018-08-23T18:47:38.924Z,23.13
2018-08-23T18:50:42.590Z,23.05
2018-08-23T18:53:46.264Z,22.90
2018-08-23T18:56:49.940Z,22.88
2018-08-23T18:59:53.715Z,22.90
2018-08-23T19:02:57.469Z,22.78
2018-08-23T19:06:01.233Z,22.79
2018-08-23T19:09:08.438Z,22.75
2018-08-23T19:12:12.265Z,22.72
2018-08-23T19:15:20.490Z,22.56
2018-08-23T19:18:24.412Z,22.41
2018-08-23T19:21:28.126Z,22.36
2018-08-23T19:24:31.908Z,22.24
2018-08-23T19:27:35.800Z,22.12
2018-08-23T19:30:39.609Z,22.14
2018-08-23T19:33:43.460Z,22.22
2018-08-23T19:36:47.648Z,22.23
2018-08-23T19:39:51.631Z,22.22
2018-08-23T19:42:55.398Z,22.11
2018-08-23T19:46:06.028Z,22.06
2018-08-23T19:49:14.927Z,22.07
2018-08-23T19:52:18.862Z,21.98
2018-08-23T19:55:22.761Z,21.91
2018-08-23T19:58:26.676Z,21.84
2018-08-23T20:01:30.469Z,21.76
2018-08-23T20:04:34.248Z,21.73
2018-08-23T20:07:38.856Z,21.63
2018-08-23T20:10:42.681Z,21.61
2018-08-23T20:13:46.436Z,21.54
2018-08-23T20:16:50.235Z,21.58
2018-08-23T20:19:54.040Z,21.45
2018-08-23T20:22:57.815Z,21.33
2018-08-23T20:26:01.667Z,21.28
2018-08-23T20:29:05.738Z,21.08
2018-08-23T20:32:09.591Z,21.11
2018-08-23T20:35:13.292Z,20.98
2018-08-23T20:38:17.106Z,20.90
2018-08-23T20:41:20.871Z,20.92
2018-08-23T20:44:24.754Z,20.84
2018-08-23T20:47:28.521Z,20.84
2018-08-23T20:50:32.210Z,20.80
2018-08-23T20:53:36.167Z,20.69
2018-08-23T20:56:39.850Z,20.57
2018-08-23T20:59:43.642Z,20.49
2018-08-23T21:02:47.387Z,20.45
2018-08-23T21:05:51.069Z,20.42
2018-08-23T21:08:54.912Z,20.30
2018-08-23T21:11:58.647Z,20.36
2018-08-23T21:15:02.535Z,20.22
2018-08-23T21:18:08.748Z,20.00
2018-08-23T21:21:12.392Z,19.84
2018-08-23T21:24:16.180Z,19.82
2018-08-23T21:27:19.880Z,19.67
2018-08-23T21:30:23.620Z,19.62
2018-08-23T21:33:27.542Z,19.47
2018-08-23T21:36:31.340Z,19.60
2018-08-23T21:39:35.125Z,19.31
2018-08-23T21:42:38.960Z,19.18
2018-08-23T21:45:42.718Z,19.07
2018-08-23T21:48:46.531Z,18.96
2018-08-23T21:51:50.360Z,18.86
2018-08-23T21:54:54.044Z,18.73
2018-08-23T21:57:57.779Z,18.64
2018-08-23T22:01:09.729Z,18.63
2018-08-23T22:04:13.396Z,18.55
2018-08-23T22:07:17.277Z,18.44
2018-08-23T22:10:21.015Z,18.52
2018-08-23T22:13:24.699Z,18.64
2018-08-23T22:16:28.405Z,18.63
2018-08-23T22:19:32.247Z,18.82
2018-08-23T22:22:35.990Z,18.94
2018-08-23T22:25:40.258Z,19.10
2018-08-23T22:28:43.867Z,19.09
2018-08-23T22:31:47.562Z,18.97
2018-08-23T22:34:51.426Z,19.11
2018-08-23T22:37:55.292Z,19.07
2018-08-23T22:40:59.031Z,18.93
2018-08-23T22:44:02.888Z,18.93
2018-08-23T22:47:06.792Z,19.00
2018-08-23T22:50:10.597Z,18.96
2018-08-23T22:53:14.253Z,18.93
2018-08-23T22:56:17.827Z,18.86
2018-08-23T22:59:21.565Z,18.86
2018-08-23T23:02:30.404Z,18.72
2018-08-23T23:05:34.025Z,18.72
2018-08-23T23:08:37.696Z,18.70
2018-08-23T23:11:41.572Z,18.54
2018-08-23T23:14:45.188Z,18.61
2018-08-23T23:17:49.004Z,18.49
2018-08-23T23:20:52.626Z,18.54
2018-08-23T23:23:56.247Z,18.36
2018-08-23T23:26:59.845Z,18.32
2018-08-23T23:30:03.650Z,18.38
2018-08-23T23:33:07.230Z,18.47
2018-08-23T23:36:11.097Z,18.54
2018-08-23T23:39:14.973Z,18.52
2018-08-23T23:42:18.622Z,18.43
2018-08-23T23:45:22.243Z,18.36
2018-08-23T23:48:25.850Z,18.34
2018-08-23T23:51:29.655Z,18.34
2018-08-23T23:54:33.277Z,18.36
2018-08-23T23:57:37.073Z,18.35
